sensor_id;sensor_type;location;lat;lon;timestamp;P1;durP1;ratioP1;P2;durP2;ratioP2
10114;SDS011;5097;43.260;27.812;2022-12-18T00:00:44;4.40;;;4.00;;
10114;SDS011;5097;43.260;27.812;2022-12-18T00:03:32;5.73;;;4.53;;
10114;SDS011;5097;43.260;27.812;2022-12-18T00:06:16;5.03;;;4.30;;
10114;SDS011;5097;43.260;27.812;2022-12-18T00:09:00;4.80;;;4.40;;
10114;SDS011;5097;43.260;27.812;2022-12-18T00:11:46;5.23;;;4.73;;
10114;SDS011;5097;43.260;27.812;2022-12-18T00:14:30;6.60;;;5.20;;
10114;SDS011;5097;43.260;27.812;2022-12-18T00:17:14;6.80;;;6.00;;
10114;SDS011;5097;43.260;27.812;2022-12-18T00:20:00;5.30;;;4.80;;
10114;SDS011;5097;43.260;27.812;2022-12-18T00:22:44;7.67;;;6.20;;
10114;SDS011;5097;43.260;27.812;2022-12-18T00:25:28;7.87;;;5.70;;
10114;SDS011;5097;43.260;27.812;2022-12-18T00:28:12;5.17;;;4.40;;
10114;SDS011;5097;43.260;27.812;2022-12-18T00:30:59;3.93;;;3.60;;
10114;SDS011;5097;43.260;27.812;2022-12-18T00:33:44;4.50;;;4.10;;
10114;SDS011;5097;43.260;27.812;2022-12-18T00:36:33;4.37;;;3.97;;
10114;SDS011;5097;43.260;27.812;2022-12-18T00:39:18;3.60;;;3.30;;
10114;SDS011;5097;43.260;27.812;2022-12-18T00:42:02;3.73;;;3.43;;
10114;SDS011;5097;43.260;27.812;2022-12-18T00:45:08;4.13;;;3.83;;
10114;SDS011;5097;43.260;27.812;2022-12-18T00:47:54;3.57;;;3.30;;
10114;SDS011;5097;43.260;27.812;2022-12-18T00:50:39;5.13;;;4.67;;
10114;SDS011;5097;43.260;27.812;2022-12-18T00:53:24;4.00;;;3.70;;
10114;SDS011;5097;43.260;27.812;2022-12-18T00:56:11;4.40;;;4.00;;
10114;SDS011;5097;43.260;27.812;2022-12-18T00:58:55;5.27;;;4.30;;
10114;SDS011;5097;43.260;27.812;2022-12-18T01:01:39;4.13;;;3.83;;
10114;SDS011;5097;43.260;27.812;2022-12-18T01:04:23;3.70;;;3.40;;
10114;SDS011;5097;43.260;27.812;2022-12-18T01:07:07;4.40;;;4.03;;
10114;SDS011;5097;43.260;27.812;2022-12-18T01:09:53;4.17;;;3.87;;
10114;SDS011;5097;43.260;27.812;2022-12-18T01:12:37;4.07;;;3.70;;
10114;SDS011;5097;43.260;27.812;2022-12-18T01:15:21;3.70;;;3.40;;
10114;SDS011;5097;43.260;27.812;2022-12-18T01:18:06;4.00;;;3.57;;
10114;SDS011;5097;43.260;27.812;2022-12-18T01:20:50;4.33;;;3.93;;
10114;SDS011;5097;43.260;27.812;2022-12-18T01:23:34;4.17;;;3.87;;
10114;SDS011;5097;43.260;27.812;2022-12-18T01:26:20;3.63;;;3.33;;
10114;SDS011;5097;43.260;27.812;2022-12-18T01:29:05;3.93;;;3.63;;
10114;SDS011;5097;43.260;27.812;2022-12-18T01:31:49;3.83;;;3.50;;
10114;SDS011;5097;43.260;27.812;2022-12-18T01:34:34;3.77;;;3.47;;
10114;SDS011;5097;43.260;27.812;2022-12-18T01:37:18;3.00;;;2.80;;
10114;SDS011;5097;43.260;27.812;2022-12-18T01:40:04;3.30;;;3.10;;
10114;SDS011;5097;43.260;27.812;2022-12-18T01:42:50;3.20;;;2.90;;
10114;SDS011;5097;43.260;27.812;2022-12-18T01:45:34;3.60;;;3.30;;
10114;SDS011;5097;43.260;27.812;2022-12-18T01:48:19;5.40;;;3.63;;
10114;SDS011;5097;43.260;27.812;2022-12-18T01:51:02;3.47;;;3.17;;
10114;SDS011;5097;43.260;27.812;2022-12-18T01:53:47;3.90;;;3.60;;
10114;SDS011;5097;43.260;27.812;2022-12-18T01:56:31;3.60;;;3.30;;
10114;SDS011;5097;43.260;27.812;2022-12-18T01:59:17;3.80;;;3.50;;
10114;SDS011;5097;43.260;27.812;2022-12-18T02:02:01;3.97;;;3.57;;
10114;SDS011;5097;43.260;27.812;2022-12-18T02:04:46;3.67;;;3.37;;
10114;SDS011;5097;43.260;27.812;2022-12-18T02:07:36;3.83;;;3.53;;
10114;SDS011;5097;43.260;27.812;2022-12-18T02:10:27;4.00;;;3.67;;
10114;SDS011;5097;43.260;27.812;2022-12-18T02:13:16;3.10;;;2.90;;
10114;SDS011;5097;43.260;27.812;2022-12-18T02:16:27;3.63;;;3.30;;
10114;SDS011;5097;43.260;27.812;2022-12-18T02:19:19;3.23;;;3.03;;
10114;SDS011;5097;43.260;27.812;2022-12-18T02:22:24;3.80;;;3.50;;
10114;SDS011;5097;43.260;27.812;2022-12-18T02:25:15;4.10;;;3.73;;
10114;SDS011;5097;43.260;27.812;2022-12-18T02:28:08;3.87;;;3.57;;
10114;SDS011;5097;43.260;27.812;2022-12-18T02:30:57;3.57;;;3.13;;
10114;SDS011;5097;43.260;27.812;2022-12-18T02:33:45;3.30;;;3.10;;
10114;SDS011;5097;43.260;27.812;2022-12-18T02:36:30;3.10;;;2.90;;
10114;SDS011;5097;43.260;27.812;2022-12-18T02:39:15;3.17;;;2.97;;
10114;SDS011;5097;43.260;27.812;2022-12-18T02:42:11;3.00;;;2.77;;
10114;SDS011;5097;43.260;27.812;2022-12-18T02:44:57;3.30;;;3.10;;
10114;SDS011;5097;43.260;27.812;2022-12-18T02:47:46;2.97;;;2.77;;
10114;SDS011;5097;43.260;27.812;2022-12-18T02:50:34;3.13;;;2.93;;
10114;SDS011;5097;43.260;27.812;2022-12-18T02:53:24;2.77;;;2.50;;
10114;SDS011;5097;43.260;27.812;2022-12-18T02:56:16;2.80;;;2.60;;
10114;SDS011;5097;43.260;27.812;2022-12-18T02:59:04;2.50;;;2.40;;
10114;SDS011;5097;43.260;27.812;2022-12-18T03:02:00;2.60;;;2.43;;
10114;SDS011;5097;43.260;27.812;2022-12-18T03:04:50;2.70;;;2.50;;
10114;SDS011;5097;43.260;27.812;2022-12-18T03:07:42;3.23;;;2.93;;
10114;SDS011;5097;43.260;27.812;2022-12-18T03:10:30;3.03;;;2.77;;
10114;SDS011;5097;43.260;27.812;2022-12-18T03:13:19;3.10;;;2.90;;
10114;SDS011;5097;43.260;27.812;2022-12-18T03:16:10;3.40;;;3.10;;
10114;SDS011;5097;43.260;27.812;2022-12-18T03:19:01;3.90;;;3.33;;
10114;SDS011;5097;43.260;27.812;2022-12-18T03:21:49;3.40;;;3.17;;
10114;SDS011;5097;43.260;27.812;2022-12-18T03:24:37;4.70;;;4.30;;
10114;SDS011;5097;43.260;27.812;2022-12-18T03:27:22;8.60;;;6.80;;
10114;SDS011;5097;43.260;27.812;2022-12-18T03:30:11;3.27;;;3.07;;
10114;SDS011;5097;43.260;27.812;2022-12-18T03:32:58;3.17;;;2.93;;
10114;SDS011;5097;43.260;27.812;2022-12-18T03:35:52;3.13;;;2.93;;
10114;SDS011;5097;43.260;27.812;2022-12-18T03:38:37;3.40;;;3.20;;
10114;SDS011;5097;43.260;27.812;2022-12-18T03:41:24;3.73;;;3.43;;
10114;SDS011;5097;43.260;27.812;2022-12-18T03:44:39;4.47;;;3.13;;
10114;SDS011;5097;43.260;27.812;2022-12-18T03:47:28;3.37;;;3.07;;
10114;SDS011;5097;43.260;27.812;2022-12-18T03:50:20;3.50;;;3.30;;
10114;SDS011;5097;43.260;27.812;2022-12-18T03:53:17;3.70;;;3.40;;
10114;SDS011;5097;43.260;27.812;2022-12-18T03:56:06;3.83;;;3.53;;
10114;SDS011;5097;43.260;27.812;2022-12-18T03:58:55;3.73;;;3.43;;
10114;SDS011;5097;43.260;27.812;2022-12-18T04:01:43;3.83;;;3.53;;
10114;SDS011;5097;43.260;27.812;2022-12-18T04:04:31;5.07;;;3.80;;
10114;SDS011;5097;43.260;27.812;2022-12-18T04:07:18;4.47;;;3.57;;
10114;SDS011;5097;43.260;27.812;2022-12-18T04:10:06;4.67;;;4.27;;
10114;SDS011;5097;43.260;27.812;2022-12-18T04:12:56;3.90;;;3.50;;
10114;SDS011;5097;43.260;27.812;2022-12-18T04:15:42;4.60;;;4.10;;
10114;SDS011;5097;43.260;27.812;2022-12-18T04:18:29;5.03;;;4.60;;
10114;SDS011;5097;43.260;27.812;2022-12-18T04:21:15;4.77;;;4.37;;
10114;SDS011;5097;43.260;27.812;2022-12-18T04:24:01;5.27;;;4.77;;
10114;SDS011;5097;43.260;27.812;2022-12-18T04:26:46;5.77;;;4.90;;
10114;SDS011;5097;43.260;27.812;2022-12-18T04:29:32;7.00;;;6.13;;
10114;SDS011;5097;43.260;27.812;2022-12-18T04:32:16;7.40;;;6.33;;
10114;SDS011;5097;43.260;27.812;2022-12-18T04:35:02;6.37;;;5.77;;
10114;SDS011;5097;43.260;27.812;2022-12-18T04:37:49;9.03;;;6.93;;
10114;SDS011;5097;43.260;27.812;2022-12-18T04:40:33;10.83;;;6.97;;
10114;SDS011;5097;43.260;27.812;2022-12-18T04:43:21;8.60;;;7.30;;
10114;SDS011;5097;43.260;27.812;2022-12-18T04:46:05;9.93;;;7.63;;
10114;SDS011;5097;43.260;27.812;2022-12-18T04:48:50;12.03;;;9.13;;
10114;SDS011;5097;43.260;27.812;2022-12-18T04:51:34;8.93;;;8.03;;
10114;SDS011;5097;43.260;27.812;2022-12-18T04:54:18;10.13;;;8.40;;
10114;SDS011;5097;43.260;27.812;2022-12-18T04:57:02;9.23;;;7.90;;
10114;SDS011;5097;43.260;27.812;2022-12-18T04:59:47;10.00;;;7.67;;
10114;SDS011;5097;43.260;27.812;2022-12-18T05:02:31;8.63;;;7.17;;
10114;SDS011;5097;43.260;27.812;2022-12-18T05:05:15;10.23;;;8.20;;
10114;SDS011;5097;43.260;27.812;2022-12-18T05:07:59;9.67;;;7.73;;
10114;SDS011;5097;43.260;27.812;2022-12-18T05:10:43;8.07;;;7.27;;
10114;SDS011;5097;43.260;27.812;2022-12-18T05:13:27;9.47;;;7.07;;
10114;SDS011;5097;43.260;27.812;2022-12-18T05:16:13;11.47;;;8.80;;
10114;SDS011;5097;43.260;27.812;2022-12-18T05:18:57;11.70;;;9.97;;
10114;SDS011;5097;43.260;27.812;2022-12-18T05:21:40;12.20;;;10.07;;
10114;SDS011;5097;43.260;27.812;2022-12-18T05:24:25;10.33;;;8.67;;
10114;SDS011;5097;43.260;27.812;2022-12-18T05:27:09;12.27;;;10.37;;
10114;SDS011;5097;43.260;27.812;2022-12-18T05:29:52;12.67;;;10.73;;
10114;SDS011;5097;43.260;27.812;2022-12-18T05:32:37;14.57;;;11.23;;
10114;SDS011;5097;43.260;27.812;2022-12-18T05:35:22;13.10;;;11.03;;
10114;SDS011;5097;43.260;27.812;2022-12-18T05:38:05;14.17;;;10.83;;
10114;SDS011;5097;43.260;27.812;2022-12-18T05:40:49;14.87;;;11.40;;
10114;SDS011;5097;43.260;27.812;2022-12-18T05:43:34;17.33;;;11.80;;
10114;SDS011;5097;43.260;27.812;2022-12-18T05:46:19;14.07;;;11.77;;
10114;SDS011;5097;43.260;27.812;2022-12-18T05:49:04;15.10;;;11.43;;
10114;SDS011;5097;43.260;27.812;2022-12-18T05:51:48;14.53;;;11.50;;
10114;SDS011;5097;43.260;27.812;2022-12-18T05:54:32;16.10;;;12.07;;
10114;SDS011;5097;43.260;27.812;2022-12-18T05:57:16;15.40;;;11.67;;
10114;SDS011;5097;43.260;27.812;2022-12-18T06:00:00;15.17;;;12.00;;
10114;SDS011;5097;43.260;27.812;2022-12-18T06:02:53;14.47;;;11.47;;
10114;SDS011;5097;43.260;27.812;2022-12-18T06:05:39;17.17;;;12.53;;
10114;SDS011;5097;43.260;27.812;2022-12-18T06:08:24;16.77;;;13.23;;
10114;SDS011;5097;43.260;27.812;2022-12-18T06:11:08;16.50;;;12.87;;
10114;SDS011;5097;43.260;27.812;2022-12-18T06:13:52;17.70;;;12.67;;
10114;SDS011;5097;43.260;27.812;2022-12-18T06:16:40;19.87;;;14.10;;
10114;SDS011;5097;43.260;27.812;2022-12-18T06:19:24;18.43;;;15.17;;
10114;SDS011;5097;43.260;27.812;2022-12-18T06:22:09;21.80;;;16.10;;
10114;SDS011;5097;43.260;27.812;2022-12-18T06:24:53;19.57;;;13.90;;
10114;SDS011;5097;43.260;27.812;2022-12-18T06:27:37;15.93;;;12.83;;
10114;SDS011;5097;43.260;27.812;2022-12-18T06:30:20;17.47;;;13.80;;
10114;SDS011;5097;43.260;27.812;2022-12-18T06:33:04;19.67;;;14.17;;
10114;SDS011;5097;43.260;27.812;2022-12-18T06:35:48;21.60;;;15.13;;
10114;SDS011;5097;43.260;27.812;2022-12-18T06:38:38;20.23;;;14.43;;
10114;SDS011;5097;43.260;27.812;2022-12-18T06:41:23;18.77;;;15.20;;
10114;SDS011;5097;43.260;27.812;2022-12-18T06:44:07;22.27;;;16.63;;
10114;SDS011;5097;43.260;27.812;2022-12-18T06:46:52;20.93;;;15.53;;
10114;SDS011;5097;43.260;27.812;2022-12-18T06:49:35;20.13;;;15.03;;
10114;SDS011;5097;43.260;27.812;2022-12-18T06:52:19;21.67;;;16.40;;
10114;SDS011;5097;43.260;27.812;2022-12-18T06:55:05;22.23;;;16.47;;
10114;SDS011;5097;43.260;27.812;2022-12-18T06:57:50;22.50;;;16.77;;
10114;SDS011;5097;43.260;27.812;2022-12-18T07:00:33;22.37;;;17.23;;
10114;SDS011;5097;43.260;27.812;2022-12-18T07:03:18;25.33;;;18.00;;
10114;SDS011;5097;43.260;27.812;2022-12-18T07:06:02;24.67;;;18.63;;
10114;SDS011;5097;43.260;27.812;2022-12-18T07:08:46;23.27;;;17.03;;
10114;SDS011;5097;43.260;27.812;2022-12-18T07:11:33;26.93;;;19.27;;
10114;SDS011;5097;43.260;27.812;2022-12-18T07:14:17;24.93;;;18.30;;
10114;SDS011;5097;43.260;27.812;2022-12-18T07:17:01;30.83;;;21.33;;
10114;SDS011;5097;43.260;27.812;2022-12-18T07:19:45;28.87;;;19.60;;
10114;SDS011;5097;43.260;27.812;2022-12-18T07:22:28;29.83;;;19.43;;
10114;SDS011;5097;43.260;27.812;2022-12-18T07:25:12;28.83;;;20.33;;
10114;SDS011;5097;43.260;27.812;2022-12-18T07:27:57;29.23;;;20.03;;
10114;SDS011;5097;43.260;27.812;2022-12-18T07:30:41;26.13;;;18.33;;
10114;SDS011;5097;43.260;27.812;2022-12-18T07:33:25;28.07;;;19.70;;
10114;SDS011;5097;43.260;27.812;2022-12-18T07:36:10;23.33;;;16.27;;
10114;SDS011;5097;43.260;27.812;2022-12-18T07:38:54;27.67;;;19.73;;
10114;SDS011;5097;43.260;27.812;2022-12-18T07:41:38;27.87;;;18.67;;
10114;SDS011;5097;43.260;27.812;2022-12-18T07:44:31;23.40;;;15.03;;
10114;SDS011;5097;43.260;27.812;2022-12-18T07:47:15;26.57;;;19.77;;
10114;SDS011;5097;43.260;27.812;2022-12-18T07:49:59;27.23;;;19.00;;
10114;SDS011;5097;43.260;27.812;2022-12-18T07:52:43;24.73;;;18.60;;
10114;SDS011;5097;43.260;27.812;2022-12-18T07:55:27;24.60;;;18.03;;
10114;SDS011;5097;43.260;27.812;2022-12-18T07:58:31;24.57;;;17.60;;
10114;SDS011;5097;43.260;27.812;2022-12-18T08:01:17;26.27;;;19.13;;
10114;SDS011;5097;43.260;27.812;2022-12-18T08:04:02;27.57;;;17.93;;
10114;SDS011;5097;43.260;27.812;2022-12-18T08:06:46;30.17;;;20.00;;
10114;SDS011;5097;43.260;27.812;2022-12-18T08:09:30;42.17;;;29.90;;
10114;SDS011;5097;43.260;27.812;2022-12-18T08:12:14;32.80;;;22.53;;
10114;SDS011;5097;43.260;27.812;2022-12-18T08:14:57;32.03;;;21.20;;
10114;SDS011;5097;43.260;27.812;2022-12-18T08:17:43;30.27;;;22.37;;
10114;SDS011;5097;43.260;27.812;2022-12-18T08:20:26;24.83;;;18.43;;
10114;SDS011;5097;43.260;27.812;2022-12-18T08:23:10;28.63;;;18.47;;
10114;SDS011;5097;43.260;27.812;2022-12-18T08:25:54;32.17;;;23.70;;
10114;SDS011;5097;43.260;27.812;2022-12-18T08:28:38;31.33;;;21.67;;
10114;SDS011;5097;43.260;27.812;2022-12-18T08:31:22;30.53;;;20.73;;
10114;SDS011;5097;43.260;27.812;2022-12-18T08:34:08;28.70;;;20.30;;
10114;SDS011;5097;43.260;27.812;2022-12-18T08:36:52;30.87;;;21.07;;
10114;SDS011;5097;43.260;27.812;2022-12-18T08:39:36;28.97;;;20.23;;
10114;SDS011;5097;43.260;27.812;2022-12-18T08:42:19;28.77;;;20.83;;
10114;SDS011;5097;43.260;27.812;2022-12-18T08:45:21;34.67;;;22.77;;
10114;SDS011;5097;43.260;27.812;2022-12-18T08:48:05;33.50;;;21.13;;
10114;SDS011;5097;43.260;27.812;2022-12-18T08:50:54;30.63;;;22.17;;
10114;SDS011;5097;43.260;27.812;2022-12-18T08:53:39;30.77;;;21.90;;
10114;SDS011;5097;43.260;27.812;2022-12-18T08:56:23;32.40;;;22.43;;
10114;SDS011;5097;43.260;27.812;2022-12-18T08:59:08;34.00;;;24.67;;
10114;SDS011;5097;43.260;27.812;2022-12-18T09:02:00;32.20;;;22.90;;
10114;SDS011;5097;43.260;27.812;2022-12-18T09:04:46;34.23;;;23.27;;
10114;SDS011;5097;43.260;27.812;2022-12-18T09:07:39;33.00;;;23.37;;
10114;SDS011;5097;43.260;27.812;2022-12-18T09:10:23;33.57;;;21.90;;
10114;SDS011;5097;43.260;27.812;2022-12-18T09:13:07;36.17;;;25.27;;
10114;SDS011;5097;43.260;27.812;2022-12-18T09:15:51;39.37;;;28.07;;
10114;SDS011;5097;43.260;27.812;2022-12-18T09:18:37;33.60;;;23.97;;
10114;SDS011;5097;43.260;27.812;2022-12-18T09:21:21;31.70;;;23.03;;
10114;SDS011;5097;43.260;27.812;2022-12-18T09:24:08;34.90;;;25.50;;
10114;SDS011;5097;43.260;27.812;2022-12-18T09:26:56;34.37;;;24.40;;
10114;SDS011;5097;43.260;27.812;2022-12-18T09:29:40;34.97;;;24.70;;
10114;SDS011;5097;43.260;27.812;2022-12-18T09:32:24;33.40;;;20.40;;
10114;SDS011;5097;43.260;27.812;2022-12-18T09:35:08;35.30;;;22.90;;
10114;SDS011;5097;43.260;27.812;2022-12-18T09:37:52;33.67;;;22.90;;
10114;SDS011;5097;43.260;27.812;2022-12-18T09:40:41;31.60;;;22.27;;
10114;SDS011;5097;43.260;27.812;2022-12-18T09:43:27;34.27;;;24.20;;
10114;SDS011;5097;43.260;27.812;2022-12-18T09:46:17;35.97;;;24.13;;
10114;SDS011;5097;43.260;27.812;2022-12-18T09:49:10;37.10;;;25.93;;
10114;SDS011;5097;43.260;27.812;2022-12-18T09:51:59;34.73;;;25.67;;
10114;SDS011;5097;43.260;27.812;2022-12-18T09:54:50;24.87;;;17.77;;
10114;SDS011;5097;43.260;27.812;2022-12-18T09:57:39;31.40;;;21.87;;
10114;SDS011;5097;43.260;27.812;2022-12-18T10:00:28;32.33;;;21.60;;
10114;SDS011;5097;43.260;27.812;2022-12-18T10:03:13;32.07;;;21.53;;
10114;SDS011;5097;43.260;27.812;2022-12-18T10:05:59;31.30;;;21.93;;
10114;SDS011;5097;43.260;27.812;2022-12-18T10:08:51;29.00;;;20.53;;
10114;SDS011;5097;43.260;27.812;2022-12-18T10:11:43;29.00;;;20.73;;
10114;SDS011;5097;43.260;27.812;2022-12-18T10:14:40;33.33;;;22.47;;
10114;SDS011;5097;43.260;27.812;2022-12-18T10:17:34;32.43;;;21.03;;
10114;SDS011;5097;43.260;27.812;2022-12-18T10:20:27;29.10;;;20.47;;
10114;SDS011;5097;43.260;27.812;2022-12-18T10:23:17;33.83;;;21.90;;
10114;SDS011;5097;43.260;27.812;2022-12-18T10:26:09;37.97;;;26.17;;
10114;SDS011;5097;43.260;27.812;2022-12-18T10:28:55;29.20;;;21.40;;
10114;SDS011;5097;43.260;27.812;2022-12-18T10:31:48;34.00;;;24.10;;
10114;SDS011;5097;43.260;27.812;2022-12-18T10:34:32;36.23;;;26.83;;
10114;SDS011;5097;43.260;27.812;2022-12-18T10:37:16;31.47;;;22.10;;
10114;SDS011;5097;43.260;27.812;2022-12-18T10:40:07;33.20;;;23.17;;
10114;SDS011;5097;43.260;27.812;2022-12-18T10:43:03;36.90;;;22.50;;
10114;SDS011;5097;43.260;27.812;2022-12-18T10:49:01;38.23;;;24.67;;
10114;SDS011;5097;43.260;27.812;2022-12-18T10:51:45;32.83;;;24.73;;
10114;SDS011;5097;43.260;27.812;2022-12-18T10:54:30;38.80;;;26.00;;
10114;SDS011;5097;43.260;27.812;2022-12-18T10:57:16;40.53;;;25.17;;
10114;SDS011;5097;43.260;27.812;2022-12-18T11:00:21;32.07;;;22.13;;
10114;SDS011;5097;43.260;27.812;2022-12-18T11:03:11;36.03;;;22.20;;
10114;SDS011;5097;43.260;27.812;2022-12-18T11:06:15;32.70;;;23.97;;
10114;SDS011;5097;43.260;27.812;2022-12-18T11:09:01;34.93;;;24.23;;
10114;SDS011;5097;43.260;27.812;2022-12-18T11:11:54;38.17;;;25.27;;
10114;SDS011;5097;43.260;27.812;2022-12-18T11:14:42;37.23;;;25.33;;
10114;SDS011;5097;43.260;27.812;2022-12-18T11:17:30;33.57;;;22.00;;
10114;SDS011;5097;43.260;27.812;2022-12-18T11:20:25;35.00;;;21.73;;
10114;SDS011;5097;43.260;27.812;2022-12-18T11:23:16;32.63;;;23.07;;
10114;SDS011;5097;43.260;27.812;2022-12-18T11:26:02;34.03;;;24.20;;
10114;SDS011;5097;43.260;27.812;2022-12-18T11:28:49;32.33;;;23.43;;
10114;SDS011;5097;43.260;27.812;2022-12-18T11:31:34;35.17;;;23.43;;
10114;SDS011;5097;43.260;27.812;2022-12-18T11:34:19;42.03;;;30.47;;
10114;SDS011;5097;43.260;27.812;2022-12-18T11:37:11;33.27;;;21.23;;
10114;SDS011;5097;43.260;27.812;2022-12-18T11:40:03;44.67;;;27.80;;
10114;SDS011;5097;43.260;27.812;2022-12-18T11:42:56;38.77;;;25.97;;
10114;SDS011;5097;43.260;27.812;2022-12-18T11:45:49;43.83;;;29.47;;
10114;SDS011;5097;43.260;27.812;2022-12-18T11:48:37;45.20;;;28.30;;
10114;SDS011;5097;43.260;27.812;2022-12-18T11:51:29;39.90;;;27.13;;
10114;SDS011;5097;43.260;27.812;2022-12-18T11:54:18;44.27;;;29.03;;
10114;SDS011;5097;43.260;27.812;2022-12-18T11:57:05;44.27;;;30.30;;
10114;SDS011;5097;43.260;27.812;2022-12-18T12:00:01;50.07;;;29.47;;
10114;SDS011;5097;43.260;27.812;2022-12-18T12:06:10;45.17;;;27.90;;
10114;SDS011;5097;43.260;27.812;2022-12-18T12:09:02;45.33;;;29.20;;
10114;SDS011;5097;43.260;27.812;2022-12-18T12:11:59;45.27;;;28.77;;
10114;SDS011;5097;43.260;27.812;2022-12-18T12:14:57;42.47;;;27.07;;
10114;SDS011;5097;43.260;27.812;2022-12-18T12:17:54;42.67;;;25.37;;
10114;SDS011;5097;43.260;27.812;2022-12-18T12:20:53;43.97;;;27.63;;
10114;SDS011;5097;43.260;27.812;2022-12-18T12:23:47;47.30;;;30.00;;
10114;SDS011;5097;43.260;27.812;2022-12-18T12:26:38;47.60;;;30.53;;
10114;SDS011;5097;43.260;27.812;2022-12-18T12:29:33;48.90;;;29.97;;
10114;SDS011;5097;43.260;27.812;2022-12-18T12:32:29;45.17;;;29.20;;
10114;SDS011;5097;43.260;27.812;2022-12-18T12:35:31;40.23;;;26.53;;
10114;SDS011;5097;43.260;27.812;2022-12-18T12:38:26;37.83;;;25.87;;
10114;SDS011;5097;43.260;27.812;2022-12-18T12:41:15;42.07;;;27.90;;
10114;SDS011;5097;43.260;27.812;2022-12-18T12:44:21;40.30;;;27.33;;
10114;SDS011;5097;43.260;27.812;2022-12-18T12:47:11;45.87;;;28.00;;
10114;SDS011;5097;43.260;27.812;2022-12-18T12:50:01;49.37;;;28.93;;
10114;SDS011;5097;43.260;27.812;2022-12-18T12:52:50;38.33;;;24.27;;
10114;SDS011;5097;43.260;27.812;2022-12-18T12:55:36;39.10;;;26.30;;
10114;SDS011;5097;43.260;27.812;2022-12-18T12:58:25;39.90;;;28.23;;
10114;SDS011;5097;43.260;27.812;2022-12-18T13:01:17;43.13;;;27.77;;
10114;SDS011;5097;43.260;27.812;2022-12-18T13:04:12;38.27;;;25.50;;
10114;SDS011;5097;43.260;27.812;2022-12-18T13:07:05;32.87;;;21.03;;
10114;SDS011;5097;43.260;27.812;2022-12-18T13:10:13;24.67;;;17.03;;
10114;SDS011;5097;43.260;27.812;2022-12-18T13:13:08;23.53;;;15.80;;
10114;SDS011;5097;43.260;27.812;2022-12-18T13:16:03;13.20;;;11.13;;
10114;SDS011;5097;43.260;27.812;2022-12-18T13:18:48;16.53;;;12.73;;
10114;SDS011;5097;43.260;27.812;2022-12-18T13:21:34;23.47;;;14.60;;
10114;SDS011;5097;43.260;27.812;2022-12-18T13:24:22;16.77;;;11.63;;
10114;SDS011;5097;43.260;27.812;2022-12-18T13:30:41;30.70;;;20.10;;
10114;SDS011;5097;43.260;27.812;2022-12-18T13:33:41;22.93;;;15.97;;
10114;SDS011;5097;43.260;27.812;2022-12-18T13:36:48;25.50;;;18.10;;
10114;SDS011;5097;43.260;27.812;2022-12-18T13:39:33;11.73;;;8.73;;
10114;SDS011;5097;43.260;27.812;2022-12-18T13:45:50;12.93;;;10.27;;
10114;SDS011;5097;43.260;27.812;2022-12-18T13:48:48;12.23;;;9.97;;
10114;SDS011;5097;43.260;27.812;2022-12-18T13:51:35;10.77;;;9.63;;
10114;SDS011;5097;43.260;27.812;2022-12-18T13:54:28;12.23;;;9.97;;
10114;SDS011;5097;43.260;27.812;2022-12-18T13:57:26;14.77;;;10.00;;
10114;SDS011;5097;43.260;27.812;2022-12-18T14:00:23;13.33;;;10.87;;
10114;SDS011;5097;43.260;27.812;2022-12-18T14:03:21;13.83;;;10.27;;
10114;SDS011;5097;43.260;27.812;2022-12-18T14:06:08;9.57;;;8.57;;
10114;SDS011;5097;43.260;27.812;2022-12-18T14:08:56;17.27;;;11.03;;
10114;SDS011;5097;43.260;27.812;2022-12-18T14:11:47;17.83;;;12.23;;
10114;SDS011;5097;43.260;27.812;2022-12-18T14:14:32;14.33;;;12.07;;
10114;SDS011;5097;43.260;27.812;2022-12-18T14:17:17;12.07;;;9.07;;
10114;SDS011;5097;43.260;27.812;2022-12-18T14:20:03;12.30;;;10.20;;
10114;SDS011;5097;43.260;27.812;2022-12-18T14:22:56;13.07;;;11.40;;
10114;SDS011;5097;43.260;27.812;2022-12-18T14:25:45;14.53;;;10.60;;
10114;SDS011;5097;43.260;27.812;2022-12-18T14:28:31;11.30;;;9.37;;
10114;SDS011;5097;43.260;27.812;2022-12-18T14:31:18;14.50;;;9.90;;
10114;SDS011;5097;43.260;27.812;2022-12-18T14:34:03;15.63;;;13.00;;
10114;SDS011;5097;43.260;27.812;2022-12-18T14:36:51;11.87;;;10.57;;
10114;SDS011;5097;43.260;27.812;2022-12-18T14:39:38;16.57;;;13.13;;
10114;SDS011;5097;43.260;27.812;2022-12-18T14:42:22;13.10;;;10.60;;
10114;SDS011;5097;43.260;27.812;2022-12-18T14:48:25;16.10;;;12.73;;
10114;SDS011;5097;43.260;27.812;2022-12-18T14:51:20;14.50;;;9.70;;
10114;SDS011;5097;43.260;27.812;2022-12-18T14:54:13;23.00;;;13.27;;
10114;SDS011;5097;43.260;27.812;2022-12-18T14:57:01;26.67;;;16.00;;
10114;SDS011;5097;43.260;27.812;2022-12-18T14:59:47;17.23;;;11.67;;
10114;SDS011;5097;43.260;27.812;2022-12-18T15:02:34;28.13;;;17.67;;
10114;SDS011;5097;43.260;27.812;2022-12-18T15:05:20;26.53;;;18.67;;
10114;SDS011;5097;43.260;27.812;2022-12-18T15:11:27;17.13;;;12.00;;
10114;SDS011;5097;43.260;27.812;2022-12-18T15:14:30;20.47;;;16.17;;
10114;SDS011;5097;43.260;27.812;2022-12-18T15:17:18;14.33;;;12.13;;
10114;SDS011;5097;43.260;27.812;2022-12-18T15:20:10;18.00;;;12.77;;
10114;SDS011;5097;43.260;27.812;2022-12-18T15:22:54;18.73;;;12.77;;
10114;SDS011;5097;43.260;27.812;2022-12-18T15:25:38;16.70;;;12.30;;
10114;SDS011;5097;43.260;27.812;2022-12-18T15:28:22;16.17;;;11.97;;
10114;SDS011;5097;43.260;27.812;2022-12-18T15:31:21;15.43;;;12.53;;
10114;SDS011;5097;43.260;27.812;2022-12-18T15:34:14;13.87;;;11.37;;
10114;SDS011;5097;43.260;27.812;2022-12-18T15:37:06;16.20;;;13.03;;
10114;SDS011;5097;43.260;27.812;2022-12-18T15:39:50;14.40;;;11.17;;
10114;SDS011;5097;43.260;27.812;2022-12-18T15:42:34;14.53;;;12.20;;
10114;SDS011;5097;43.260;27.812;2022-12-18T15:45:35;15.43;;;11.70;;
10114;SDS011;5097;43.260;27.812;2022-12-18T15:48:20;11.83;;;10.30;;
10114;SDS011;5097;43.260;27.812;2022-12-18T15:51:07;22.87;;;15.03;;
10114;SDS011;5097;43.260;27.812;2022-12-18T15:54:00;15.20;;;11.10;;
10114;SDS011;5097;43.260;27.812;2022-12-18T15:56:46;15.27;;;11.53;;
10114;SDS011;5097;43.260;27.812;2022-12-18T15:59:47;17.67;;;13.73;;
10114;SDS011;5097;43.260;27.812;2022-12-18T16:02:31;20.40;;;15.07;;
10114;SDS011;5097;43.260;27.812;2022-12-18T16:05:16;18.43;;;14.27;;
10114;SDS011;5097;43.260;27.812;2022-12-18T16:08:01;19.23;;;16.23;;
10114;SDS011;5097;43.260;27.812;2022-12-18T16:10:46;19.03;;;13.87;;
10114;SDS011;5097;43.260;27.812;2022-12-18T16:13:31;16.43;;;13.43;;
10114;SDS011;5097;43.260;27.812;2022-12-18T16:16:15;17.40;;;14.33;;
10114;SDS011;5097;43.260;27.812;2022-12-18T16:18:59;19.90;;;15.63;;
10114;SDS011;5097;43.260;27.812;2022-12-18T16:21:45;29.30;;;21.40;;
10114;SDS011;5097;43.260;27.812;2022-12-18T16:24:30;20.47;;;16.33;;
10114;SDS011;5097;43.260;27.812;2022-12-18T16:27:19;23.93;;;18.07;;
10114;SDS011;5097;43.260;27.812;2022-12-18T16:30:05;18.93;;;16.03;;
10114;SDS011;5097;43.260;27.812;2022-12-18T16:32:49;21.23;;;18.03;;
10114;SDS011;5097;43.260;27.812;2022-12-18T16:35:33;19.03;;;14.47;;
10114;SDS011;5097;43.260;27.812;2022-12-18T16:38:19;16.50;;;13.23;;
10114;SDS011;5097;43.260;27.812;2022-12-18T16:41:06;21.67;;;14.90;;
10114;SDS011;5097;43.260;27.812;2022-12-18T16:44:19;28.17;;;16.90;;
10114;SDS011;5097;43.260;27.812;2022-12-18T16:47:03;17.03;;;11.70;;
10114;SDS011;5097;43.260;27.812;2022-12-18T16:49:49;25.27;;;16.33;;
10114;SDS011;5097;43.260;27.812;2022-12-18T16:52:34;25.30;;;16.20;;